sensor_id;sensor_type;location;lat;lon;timestamp;temperature;humidity
3226;DHT22;1625;49.884;8.666;2023-03-01T00:01:41;1.60;99.90
3226;DHT22;1625;49.884;8.666;2023-03-01T00:04:07;1.60;99.90
3226;DHT22;1625;49.884;8.666;2023-03-01T00:06:35;1.80;99.90
3226;DHT22;1625;49.884;8.666;2023-03-01T00:09:01;1.70;99.90
3226;DHT22;1625;49.884;8.666;2023-03-01T00:11:29;1.60;99.90
3226;DHT22;1625;49.884;8.666;2023-03-01T00:13:57;1.50;99.90
3226;DHT22;1625;49.884;8.666;2023-03-01T00:16:26;1.60;99.90
3226;DHT22;1625;49.884;8.666;2023-03-01T00:18:51;1.50;99.90
3226;DHT22;1625;49.884;8.666;2023-03-01T00:21:18;1.50;99.90
3226;DHT22;1625;49.884;8.666;2023-03-01T00:23:45;1.50;99.90
3226;DHT22;1625;49.884;8.666;2023-03-01T00:26:12;1.50;99.90
3226;DHT22;1625;49.884;8.666;2023-03-01T00:28:38;1.50;99.90
3226;DHT22;1625;49.884;8.666;2023-03-01T00:31:05;1.90;99.90
3226;DHT22;1625;49.884;8.666;2023-03-01T00:33:32;1.70;99.90
3226;DHT22;1625;49.884;8.666;2023-03-01T00:35:58;1.50;99.90
3226;DHT22;1625;49.884;8.666;2023-03-01T00:38:24;1.60;99.90
3226;DHT22;1625;49.884;8.666;2023-03-01T00:43:15;1.40;99.90
3226;DHT22;1625;49.884;8.666;2023-03-01T00:45:41;1.40;99.90
3226;DHT22;1625;49.884;8.666;2023-03-01T00:48:07;1.30;99.90
3226;DHT22;1625;49.884;8.666;2023-03-01T00:50:32;1.30;99.90
3226;DHT22;1625;49.884;8.666;2023-03-01T00:52:58;1.40;99.90
3226;DHT22;1625;49.884;8.666;2023-03-01T00:55:24;1.40;99.90
3226;DHT22;1625;49.884;8.666;2023-03-01T00:57:50;1.30;99.90
3226;DHT22;1625;49.884;8.666;2023-03-01T01:00:16;1.30;99.90
3226;DHT22;1625;49.884;8.666;2023-03-01T01:02:42;1.30;99.90
3226;DHT22;1625;49.884;8.666;2023-03-01T01:05:07;1.30;99.90
3226;DHT22;1625;49.884;8.666;2023-03-01T01:07:33;1.30;99.90
3226;DHT22;1625;49.884;8.666;2023-03-01T01:09:59;1.30;99.90
3226;DHT22;1625;49.884;8.666;2023-03-01T01:12:24;1.30;99.90
3226;DHT22;1625;49.884;8.666;2023-03-01T01:14:50;1.30;99.90
3226;DHT22;1625;49.884;8.666;2023-03-01T01:17:15;1.30;99.90
3226;DHT22;1625;49.884;8.666;2023-03-01T01:19:41;1.30;99.90
3226;DHT22;1625;49.884;8.666;2023-03-01T01:22:06;1.40;99.90
3226;DHT22;1625;49.884;8.666;2023-03-01T01:24:32;1.20;99.90
3226;DHT22;1625;49.884;8.666;2023-03-01T01:26:58;1.50;99.90
3226;DHT22;1625;49.884;8.666;2023-03-01T01:29:23;1.90;99.90
3226;DHT22;1625;49.884;8.666;2023-03-01T01:31:49;2.00;99.90
3226;DHT22;1625;49.884;8.666;2023-03-01T01:34:17;1.20;99.90
3226;DHT22;1625;49.884;8.666;2023-03-01T01:36:43;1.70;99.90
3226;DHT22;1625;49.884;8.666;2023-03-01T01:39:09;1.20;99.90
3226;DHT22;1625;49.884;8.666;2023-03-01T01:41:40;1.20;99.90
3226;DHT22;1625;49.884;8.666;2023-03-01T01:46:46;1.10;99.90
3226;DHT22;1625;49.884;8.666;2023-03-01T01:49:33;1.20;99.90
3226;DHT22;1625;49.884;8.666;2023-03-01T01:54:38;1.20;99.90
3226;DHT22;1625;49.884;8.666;2023-03-01T01:57:11;2.20;99.90
3226;DHT22;1625;49.884;8.666;2023-03-01T01:59:38;1.20;99.90
3226;DHT22;1625;49.884;8.666;2023-03-01T02:02:04;1.10;99.90
3226;DHT22;1625;49.884;8.666;2023-03-01T02:04:31;1.10;99.90
3226;DHT22;1625;49.884;8.666;2023-03-01T02:07:06;1.10;99.90
3226;DHT22;1625;49.884;8.666;2023-03-01T02:09:32;1.00;99.90
3226;DHT22;1625;49.884;8.666;2023-03-01T02:11:59;1.10;99.90
3226;DHT22;1625;49.884;8.666;2023-03-01T02:14:25;1.10;99.90
3226;DHT22;1625;49.884;8.666;2023-03-01T02:16:51;1.30;99.90
3226;DHT22;1625;49.884;8.666;2023-03-01T02:22:20;1.10;99.90
3226;DHT22;1625;49.884;8.666;2023-03-01T02:25:12;1.10;99.90
3226;DHT22;1625;49.884;8.666;2023-03-01T02:30:29;1.10;99.90
3226;DHT22;1625;49.884;8.666;2023-03-01T02:32:57;1.10;99.90
3226;DHT22;1625;49.884;8.666;2023-03-01T02:35:30;1.20;99.90
3226;DHT22;1625;49.884;8.666;2023-03-01T02:37:57;1.20;99.90
3226;DHT22;1625;49.884;8.666;2023-03-01T02:40:26;1.10;99.90
3226;DHT22;1625;49.884;8.666;2023-03-01T02:42:56;1.40;99.90
3226;DHT22;1625;49.884;8.666;2023-03-01T02:45:22;1.10;99.90
3226;DHT22;1625;49.884;8.666;2023-03-01T02:47:54;1.20;99.90
3226;DHT22;1625;49.884;8.666;2023-03-01T02:53:14;1.20;99.90
3226;DHT22;1625;49.884;8.666;2023-03-01T02:55:40;1.10;99.90
3226;DHT22;1625;49.884;8.666;2023-03-01T02:58:06;1.70;99.90
3226;DHT22;1625;49.884;8.666;2023-03-01T03:00:41;1.40;99.90
3226;DHT22;1625;49.884;8.666;2023-03-01T03:03:12;1.20;99.90
3226;DHT22;1625;49.884;8.666;2023-03-01T03:05:38;1.60;99.90
3226;DHT22;1625;49.884;8.666;2023-03-01T03:08:04;1.20;99.90
3226;DHT22;1625;49.884;8.666;2023-03-01T03:10:35;1.80;99.90
3226;DHT22;1625;49.884;8.666;2023-03-01T03:13:06;1.40;99.90
3226;DHT22;1625;49.884;8.666;2023-03-01T03:15:32;1.20;99.90
3226;DHT22;1625;49.884;8.666;2023-03-01T03:18:02;1.20;99.90
3226;DHT22;1625;49.884;8.666;2023-03-01T03:20:28;1.20;99.90
3226;DHT22;1625;49.884;8.666;2023-03-01T03:22:55;1.20;99.90
3226;DHT22;1625;49.884;8.666;2023-03-01T03:25:22;1.20;99.90
3226;DHT22;1625;49.884;8.666;2023-03-01T03:27:49;1.20;99.90
3226;DHT22;1625;49.884;8.666;2023-03-01T03:30:18;1.40;99.90
3226;DHT22;1625;49.884;8.666;2023-03-01T03:32:45;1.20;99.90
3226;DHT22;1625;49.884;8.666;2023-03-01T03:35:26;1.20;99.90
3226;DHT22;1625;49.884;8.666;2023-03-01T03:37:55;1.20;99.90
3226;DHT22;1625;49.884;8.666;2023-03-01T03:40:29;1.20;99.90
3226;DHT22;1625;49.884;8.666;2023-03-01T03:42:55;1.20;99.90
3226;DHT22;1625;49.884;8.666;2023-03-01T03:45:20;1.70;99.90
3226;DHT22;1625;49.884;8.666;2023-03-01T03:47:46;3.70;99.90
3226;DHT22;1625;49.884;8.666;2023-03-01T03:50:15;0.90;99.90
3226;DHT22;1625;49.884;8.666;2023-03-01T03:52:41;1.00;99.90
3226;DHT22;1625;49.884;8.666;2023-03-01T03:55:07;1.00;99.90
3226;DHT22;1625;49.884;8.666;2023-03-01T03:57:40;1.00;99.90
3226;DHT22;1625;49.884;8.666;2023-03-01T04:00:08;1.10;99.90
3226;DHT22;1625;49.884;8.666;2023-03-01T04:02:44;1.10;99.90
3226;DHT22;1625;49.884;8.666;2023-03-01T04:05:13;1.00;99.90
3226;DHT22;1625;49.884;8.666;2023-03-01T04:07:42;0.90;99.90
3226;DHT22;1625;49.884;8.666;2023-03-01T04:10:16;0.70;99.90
3226;DHT22;1625;49.884;8.666;2023-03-01T04:12:45;0.70;99.90
3226;DHT22;1625;49.884;8.666;2023-03-01T04:15:11;0.80;99.90
3226;DHT22;1625;49.884;8.666;2023-03-01T04:17:40;0.70;99.90
3226;DHT22;1625;49.884;8.666;2023-03-01T04:20:10;0.80;99.90
3226;DHT22;1625;49.884;8.666;2023-03-01T04:22:37;0.90;99.90
3226;DHT22;1625;49.884;8.666;2023-03-01T04:25:02;0.90;99.90
3226;DHT22;1625;49.884;8.666;2023-03-01T04:27:30;0.90;99.90
3226;DHT22;1625;49.884;8.666;2023-03-01T04:29:58;1.00;99.90
3226;DHT22;1625;49.884;8.666;2023-03-01T04:32:24;1.10;99.90
3226;DHT22;1625;49.884;8.666;2023-03-01T04:34:49;1.70;99.90
3226;DHT22;1625;49.884;8.666;2023-03-01T04:37:15;1.00;99.90
3226;DHT22;1625;49.884;8.666;2023-03-01T04:39:41;1.00;99.90
3226;DHT22;1625;49.884;8.666;2023-03-01T04:42:11;1.00;99.90
3226;DHT22;1625;49.884;8.666;2023-03-01T04:44:37;1.00;99.90
3226;DHT22;1625;49.884;8.666;2023-03-01T04:47:03;1.00;99.90
3226;DHT22;1625;49.884;8.666;2023-03-01T04:51:55;1.00;99.90
3226;DHT22;1625;49.884;8.666;2023-03-01T04:54:21;1.00;99.90
3226;DHT22;1625;49.884;8.666;2023-03-01T04:56:46;1.50;99.90
3226;DHT22;1625;49.884;8.666;2023-03-01T04:59:12;0.90;99.90
3226;DHT22;1625;49.884;8.666;2023-03-01T05:01:38;0.90;99.90
3226;DHT22;1625;49.884;8.666;2023-03-01T05:04:03;0.90;99.90
3226;DHT22;1625;49.884;8.666;2023-03-01T05:08:56;1.10;99.90
3226;DHT22;1625;49.884;8.666;2023-03-01T05:11:22;1.10;99.90
3226;DHT22;1625;49.884;8.666;2023-03-01T05:13:48;1.10;99.90
3226;DHT22;1625;49.884;8.666;2023-03-01T05:16:15;1.40;99.90
3226;DHT22;1625;49.884;8.666;2023-03-01T05:18:42;1.10;99.90
3226;DHT22;1625;49.884;8.666;2023-03-01T05:21:11;1.20;99.90
3226;DHT22;1625;49.884;8.666;2023-03-01T05:23:37;1.00;99.90
3226;DHT22;1625;49.884;8.666;2023-03-01T05:26:05;1.40;99.90
3226;DHT22;1625;49.884;8.666;2023-03-01T05:28:38;1.00;99.90
3226;DHT22;1625;49.884;8.666;2023-03-01T05:31:05;1.00;99.90
3226;DHT22;1625;49.884;8.666;2023-03-01T05:33:39;0.90;99.90
3226;DHT22;1625;49.884;8.666;2023-03-01T05:36:09;0.90;99.90
3226;DHT22;1625;49.884;8.666;2023-03-01T05:38:37;1.00;99.90
3226;DHT22;1625;49.884;8.666;2023-03-01T05:41:02;1.00;99.90
3226;DHT22;1625;49.884;8.666;2023-03-01T05:43:31;0.90;99.90
3226;DHT22;1625;49.884;8.666;2023-03-01T05:45:59;0.90;99.90
3226;DHT22;1625;49.884;8.666;2023-03-01T05:48:25;0.90;99.90
3226;DHT22;1625;49.884;8.666;2023-03-01T05:51:01;1.40;99.90
3226;DHT22;1625;49.884;8.666;2023-03-01T06:55:56;1.20;99.90
3226;DHT22;1625;49.884;8.666;2023-03-01T07:22:45;1.50;99.90
3226;DHT22;1625;49.884;8.666;2023-03-01T07:25:11;1.40;99.90
3226;DHT22;1625;49.884;8.666;2023-03-01T07:27:37;1.30;99.90
3226;DHT22;1625;49.884;8.666;2023-03-01T07:30:03;1.30;99.90
3226;DHT22;1625;49.884;8.666;2023-03-01T07:32:29;1.30;99.90
3226;DHT22;1625;49.884;8.666;2023-03-01T07:34:54;1.40;99.90
3226;DHT22;1625;49.884;8.666;2023-03-01T07:37:20;1.50;99.90
3226;DHT22;1625;49.884;8.666;2023-03-01T07:39:45;1.60;99.90
3226;DHT22;1625;49.884;8.666;2023-03-01T07:42:11;1.70;99.90
3226;DHT22;1625;49.884;8.666;2023-03-01T07:44:36;1.80;99.90
3226;DHT22;1625;49.884;8.666;2023-03-01T07:47:03;1.70;99.90
3226;DHT22;1625;49.884;8.666;2023-03-01T07:49:28;1.80;99.90
3226;DHT22;1625;49.884;8.666;2023-03-01T07:54:20;1.80;99.90
3226;DHT22;1625;49.884;8.666;2023-03-01T07:56:45;1.80;99.90
3226;DHT22;1625;49.884;8.666;2023-03-01T07:59:12;1.90;99.90
3226;DHT22;1625;49.884;8.666;2023-03-01T08:01:38;1.90;99.90
3226;DHT22;1625;49.884;8.666;2023-03-01T08:04:04;2.10;99.90
3226;DHT22;1625;49.884;8.666;2023-03-01T08:06:34;2.00;99.90
3226;DHT22;1625;49.884;8.666;2023-03-01T08:09:00;2.00;99.90
3226;DHT22;1625;49.884;8.666;2023-03-01T08:11:27;2.10;99.90
3226;DHT22;1625;49.884;8.666;2023-03-01T08:13:56;2.10;99.90
3226;DHT22;1625;49.884;8.666;2023-03-01T08:16:22;2.20;99.90
3226;DHT22;1625;49.884;8.666;2023-03-01T08:18:48;2.20;99.90
3226;DHT22;1625;49.884;8.666;2023-03-01T08:21:15;2.20;99.90
3226;DHT22;1625;49.884;8.666;2023-03-01T08:23:41;2.20;99.90
3226;DHT22;1625;49.884;8.666;2023-03-01T08:26:13;2.30;99.90
3226;DHT22;1625;49.884;8.666;2023-03-01T08:28:40;2.50;99.90
3226;DHT22;1625;49.884;8.666;2023-03-01T08:31:28;2.40;99.90
3226;DHT22;1625;49.884;8.666;2023-03-01T08:33:56;2.50;99.90
3226;DHT22;1625;49.884;8.666;2023-03-01T08:36:24;2.50;99.90
3226;DHT22;1625;49.884;8.666;2023-03-01T08:38:51;2.60;99.90
3226;DHT22;1625;49.884;8.666;2023-03-01T08:41:18;2.50;99.90
3226;DHT22;1625;49.884;8.666;2023-03-01T08:43:45;2.50;99.90
3226;DHT22;1625;49.884;8.666;2023-03-01T08:46:11;2.50;99.90
3226;DHT22;1625;49.884;8.666;2023-03-01T08:48:38;2.60;99.90
3226;DHT22;1625;49.884;8.666;2023-03-01T08:51:10;2.60;99.90
3226;DHT22;1625;49.884;8.666;2023-03-01T08:53:35;2.60;99.90
3226;DHT22;1625;49.884;8.666;2023-03-01T08:56:01;2.70;99.90
3226;DHT22;1625;49.884;8.666;2023-03-01T08:58:30;2.70;99.90
3226;DHT22;1625;49.884;8.666;2023-03-01T09:01:00;2.70;99.90
3226;DHT22;1625;49.884;8.666;2023-03-01T09:03:26;2.80;99.90
3226;DHT22;1625;49.884;8.666;2023-03-01T09:05:52;2.90;99.90
3226;DHT22;1625;49.884;8.666;2023-03-01T09:08:19;2.80;99.90
3226;DHT22;1625;49.884;8.666;2023-03-01T09:10:51;2.90;99.90
3226;DHT22;1625;49.884;8.666;2023-03-01T09:13:16;3.00;99.90
3226;DHT22;1625;49.884;8.666;2023-03-01T09:15:42;3.00;99.90
3226;DHT22;1625;49.884;8.666;2023-03-01T09:18:07;3.10;99.90
3226;DHT22;1625;49.884;8.666;2023-03-01T09:20:33;3.10;99.90
3226;DHT22;1625;49.884;8.666;2023-03-01T09:23:01;3.30;99.90
3226;DHT22;1625;49.884;8.666;2023-03-01T09:25:26;3.30;99.90
3226;DHT22;1625;49.884;8.666;2023-03-01T09:27:53;3.30;99.90
3226;DHT22;1625;49.884;8.666;2023-03-01T09:30:19;3.30;99.90
3226;DHT22;1625;49.884;8.666;2023-03-01T09:32:44;3.30;99.90
3226;DHT22;1625;49.884;8.666;2023-03-01T09:35:12;3.30;99.90
3226;DHT22;1625;49.884;8.666;2023-03-01T09:37:37;3.30;99.90
3226;DHT22;1625;49.884;8.666;2023-03-01T09:40:06;3.30;99.90
3226;DHT22;1625;49.884;8.666;2023-03-01T09:42:36;3.30;99.90
3226;DHT22;1625;49.884;8.666;2023-03-01T09:45:27;3.40;99.90
3226;DHT22;1625;49.884;8.666;2023-03-01T09:47:55;3.40;99.90
3226;DHT22;1625;49.884;8.666;2023-03-01T09:50:22;3.50;99.90
3226;DHT22;1625;49.884;8.666;2023-03-01T09:55:28;3.70;99.90
3226;DHT22;1625;49.884;8.666;2023-03-01T10:00:33;3.80;99.90
3226;DHT22;1625;49.884;8.666;2023-03-01T10:06:11;3.90;99.90
3226;DHT22;1625;49.884;8.666;2023-03-01T10:08:46;4.00;99.90
3226;DHT22;1625;49.884;8.666;2023-03-01T10:11:25;4.10;99.90
3226;DHT22;1625;49.884;8.666;2023-03-01T10:14:01;4.20;99.90
3226;DHT22;1625;49.884;8.666;2023-03-01T10:51:12;5.30;99.90
3226;DHT22;1625;49.884;8.666;2023-03-01T11:11:35;5.60;99.90
3226;DHT22;1625;49.884;8.666;2023-03-01T11:14:15;5.80;99.90
3226;DHT22;1625;49.884;8.666;2023-03-01T11:44:26;6.40;99.90
3226;DHT22;1625;49.884;8.666;2023-03-01T12:49:08;7.70;98.30
3226;DHT22;1625;49.884;8.666;2023-03-01T13:10:17;8.30;96.90
3226;DHT22;1625;49.884;8.666;2023-03-01T13:13:21;8.50;96.40
3226;DHT22;1625;49.884;8.666;2023-03-01T13:16:41;8.70;95.80
3226;DHT22;1625;49.884;8.666;2023-03-01T13:23:02;8.60;95.00
3226;DHT22;1625;49.884;8.666;2023-03-01T13:26:22;8.50;94.20
3226;DHT22;1625;49.884;8.666;2023-03-01T13:29:01;8.40;94.20
3226;DHT22;1625;49.884;8.666;2023-03-01T13:37:28;8.60;95.40
3226;DHT22;1625;49.884;8.666;2023-03-01T13:43:48;8.70;94.90
3226;DHT22;1625;49.884;8.666;2023-03-01T13:46:20;8.80;94.20
3226;DHT22;1625;49.884;8.666;2023-03-01T13:48:50;8.80;94.80
3226;DHT22;1625;49.884;8.666;2023-03-01T13:51:24;8.90;95.20
3226;DHT22;1625;49.884;8.666;2023-03-01T13:54:30;8.90;93.30
3226;DHT22;1625;49.884;8.666;2023-03-01T13:57:18;8.80;93.30
3226;DHT22;1625;49.884;8.666;2023-03-01T13:59:48;8.90;93.40
3226;DHT22;1625;49.884;8.666;2023-03-01T14:06:13;8.90;93.00
3226;DHT22;1625;49.884;8.666;2023-03-01T14:12:33;8.90;92.60
3226;DHT22;1625;49.884;8.666;2023-03-01T14:15:27;8.90;92.90
3226;DHT22;1625;49.884;8.666;2023-03-01T14:21:33;8.80;92.80
3226;DHT22;1625;49.884;8.666;2023-03-01T14:24:23;9.00;93.60
3226;DHT22;1625;49.884;8.666;2023-03-01T14:26:50;8.90;93.00
3226;DHT22;1625;49.884;8.666;2023-03-01T14:29:35;9.00;92.70
3226;DHT22;1625;49.884;8.666;2023-03-01T14:32:22;9.00;92.60
3226;DHT22;1625;49.884;8.666;2023-03-01T14:34:50;9.00;92.40
3226;DHT22;1625;49.884;8.666;2023-03-01T14:37:25;9.10;92.70
3226;DHT22;1625;49.884;8.666;2023-03-01T14:39:52;9.00;92.10
3226;DHT22;1625;49.884;8.666;2023-03-01T14:42:38;9.00;92.40
3226;DHT22;1625;49.884;8.666;2023-03-01T15:49:57;10.00;91.60
3226;DHT22;1625;49.884;8.666;2023-03-01T16:03:11;11.10;90.10
3226;DHT22;1625;49.884;8.666;2023-03-01T16:06:17;12.20;89.70
3226;DHT22;1625;49.884;8.666;2023-03-01T16:08:43;12.70;86.10
3226;DHT22;1625;49.884;8.666;2023-03-01T16:11:17;12.00;86.10
3226;DHT22;1625;49.884;8.666;2023-03-01T16:13:43;11.40;86.60
3226;DHT22;1625;49.884;8.666;2023-03-01T16:16:10;12.10;86.50
3226;DHT22;1625;49.884;8.666;2023-03-01T16:18:38;12.50;84.80
3226;DHT22;1625;49.884;8.666;2023-03-01T16:21:04;12.80;85.10
3226;DHT22;1625;49.884;8.666;2023-03-01T16:23:30;12.80;83.80
3226;DHT22;1625;49.884;8.666;2023-03-01T16:25:59;12.80;84.10
3226;DHT22;1625;49.884;8.666;2023-03-01T16:28:25;12.90;82.90
3226;DHT22;1625;49.884;8.666;2023-03-01T16:30:51;12.70;82.80
3226;DHT22;1625;49.884;8.666;2023-03-01T16:33:19;12.60;83.20
3226;DHT22;1625;49.884;8.666;2023-03-01T16:35:46;12.00;81.70
3226;DHT22;1625;49.884;8.666;2023-03-01T16:38:11;12.10;82.60
3226;DHT22;1625;49.884;8.666;2023-03-01T16:40:37;10.90;82.10
3226;DHT22;1625;49.884;8.666;2023-03-01T16:43:14;10.10;85.00
3226;DHT22;1625;49.884;8.666;2023-03-01T16:45:40;9.60;87.60
3226;DHT22;1625;49.884;8.666;2023-03-01T16:48:09;9.00;88.50
3226;DHT22;1625;49.884;8.666;2023-03-01T16:50:35;8.70;89.50
3226;DHT22;1625;49.884;8.666;2023-03-01T16:53:04;8.50;90.40
3226;DHT22;1625;49.884;8.666;2023-03-01T16:55:30;8.30;90.70
3226;DHT22;1625;49.884;8.666;2023-03-01T16:57:56;8.10;91.10
3226;DHT22;1625;49.884;8.666;2023-03-01T17:00:22;8.00;91.50
3226;DHT22;1625;49.884;8.666;2023-03-01T17:03:17;7.90;91.80
3226;DHT22;1625;49.884;8.666;2023-03-01T17:05:42;7.80;91.90
3226;DHT22;1625;49.884;8.666;2023-03-01T17:08:08;7.60;92.20
3226;DHT22;1625;49.884;8.666;2023-03-01T17:10:48;7.40;92.50
3226;DHT22;1625;49.884;8.666;2023-03-01T17:13:16;7.30;93.20
3226;DHT22;1625;49.884;8.666;2023-03-01T17:15:42;7.20;93.50
3226;DHT22;1625;49.884;8.666;2023-03-01T17:18:08;7.10;93.50
3226;DHT22;1625;49.884;8.666;2023-03-01T17:20:36;7.10;93.50
3226;DHT22;1625;49.884;8.666;2023-03-01T17:23:04;7.00;93.70
3226;DHT22;1625;49.884;8.666;2023-03-01T17:25:30;6.90;93.90
3226;DHT22;1625;49.884;8.666;2023-03-01T17:27:55;6.80;94.20
3226;DHT22;1625;49.884;8.666;2023-03-01T17:30:21;6.70;94.10
3226;DHT22;1625;49.884;8.666;2023-03-01T17:32:46;6.60;94.30
3226;DHT22;1625;49.884;8.666;2023-03-01T17:35:13;6.60;94.60
3226;DHT22;1625;49.884;8.666;2023-03-01T17:38:05;6.60;94.70
3226;DHT22;1625;49.884;8.666;2023-03-01T17:40:37;6.60;94.90
3226;DHT22;1625;49.884;8.666;2023-03-01T17:43:04;6.50;94.90
3226;DHT22;1625;49.884;8.666;2023-03-01T17:48:02;6.50;94.90
3226;DHT22;1625;49.884;8.666;2023-03-01T17:50:36;6.40;95.30
3226;DHT22;1625;49.884;8.666;2023-03-01T17:56:24;6.40;95.60
3226;DHT22;1625;49.884;8.666;2023-03-01T17:58:50;6.40;95.50
3226;DHT22;1625;49.884;8.666;2023-03-01T18:01:20;6.40;95.70
3226;DHT22;1625;49.884;8.666;2023-03-01T18:04:11;6.30;95.50
3226;DHT22;1625;49.884;8.666;2023-03-01T18:06:46;6.30;95.70
3226;DHT22;1625;49.884;8.666;2023-03-01T18:09:11;6.20;95.60
3226;DHT22;1625;49.884;8.666;2023-03-01T18:12:15;6.20;95.70
3226;DHT22;1625;49.884;8.666;2023-03-01T18:14:41;6.10;95.70
3226;DHT22;1625;49.884;8.666;2023-03-01T18:17:06;6.00;96.10
3226;DHT22;1625;49.884;8.666;2023-03-01T18:19:39;6.00;96.00
3226;DHT22;1625;49.884;8.666;2023-03-01T18:22:07;5.90;96.00
3226;DHT22;1625;49.884;8.666;2023-03-01T18:24:33;5.80;95.90
3226;DHT22;1625;49.884;8.666;2023-03-01T18:26:58;5.70;96.30
3226;DHT22;1625;49.884;8.666;2023-03-01T18:29:24;5.70;96.40
3226;DHT22;1625;49.884;8.666;2023-03-01T18:31:51;5.70;96.20
3226;DHT22;1625;49.884;8.666;2023-03-01T18:34:19;5.70;96.60
3226;DHT22;1625;49.884;8.666;2023-03-01T18:37:17;5.70;96.20
3226;DHT22;1625;49.884;8.666;2023-03-01T18:39:43;5.60;96.50
3226;DHT22;1625;49.884;8.666;2023-03-01T18:42:08;5.60;96.50
3226;DHT22;1625;49.884;8.666;2023-03-01T18:44:34;5.50;96.50
3226;DHT22;1625;49.884;8.666;2023-03-01T18:47:01;5.50;96.60
3226;DHT22;1625;49.884;8.666;2023-03-01T18:49:26;5.50;96.50
3226;DHT22;1625;49.884;8.666;2023-03-01T18:51:58;5.50;96.80
3226;DHT22;1625;49.884;8.666;2023-03-01T19:01:34;5.40;96.60
3226;DHT22;1625;49.884;8.666;2023-03-01T19:03:59;5.40;96.80
3226;DHT22;1625;49.884;8.666;2023-03-01T19:06:29;5.30;96.50
3226;DHT22;1625;49.884;8.666;2023-03-01T19:08:56;5.30;96.70
3226;DHT22;1625;49.884;8.666;2023-03-01T19:11:22;5.30;96.90
3226;DHT22;1625;49.884;8.666;2023-03-01T19:13:52;5.30;96.70
3226;DHT22;1625;49.884;8.666;2023-03-01T19:16:20;5.30;96.70
3226;DHT22;1625;49.884;8.666;2023-03-01T19:18:46;5.30;96.80
3226;DHT22;1625;49.884;8.666;2023-03-01T19:21:15;5.20;96.80
3226;DHT22;1625;49.884;8.666;2023-03-01T19:23:41;5.00;96.60
3226;DHT22;1625;49.884;8.666;2023-03-01T19:26:13;5.00;96.80
3226;DHT22;1625;49.884;8.666;2023-03-01T19:28:39;5.10;97.10
3226;DHT22;1625;49.884;8.666;2023-03-01T19:31:08;5.00;96.80
3226;DHT22;1625;49.884;8.666;2023-03-01T19:33:34;5.00;96.90
3226;DHT22;1625;49.884;8.666;2023-03-01T19:36:01;5.00;96.70
3226;DHT22;1625;49.884;8.666;2023-03-01T19:38:36;5.00;96.70
3226;DHT22;1625;49.884;8.666;2023-03-01T19:41:05;4.90;96.80
3226;DHT22;1625;49.884;8.666;2023-03-01T19:43:31;4.80;97.00
3226;DHT22;1625;49.884;8.666;2023-03-01T19:48:25;4.70;96.70
3226;DHT22;1625;49.884;8.666;2023-03-01T20:24:42;4.20;97.70
3226;DHT22;1625;49.884;8.666;2023-03-01T20:27:11;4.30;97.80
3226;DHT22;1625;49.884;8.666;2023-03-01T20:32:03;4.20;97.90
3226;DHT22;1625;49.884;8.666;2023-03-01T20:34:31;4.10;97.90
3226;DHT22;1625;49.884;8.666;2023-03-01T20:42:06;4.20;98.20
3226;DHT22;1625;49.884;8.666;2023-03-01T20:51:50;4.00;98.60
3226;DHT22;1625;49.884;8.666;2023-03-01T20:54:16;3.70;98.50
3226;DHT22;1625;49.884;8.666;2023-03-01T20:56:42;4.10;99.10
3226;DHT22;1625;49.884;8.666;2023-03-01T20:59:09;4.10;99.10
3226;DHT22;1625;49.884;8.666;2023-03-01T21:01:36;4.20;99.20
3226;DHT22;1625;49.884;8.666;2023-03-01T21:04:02;4.20;99.00
3226;DHT22;1625;49.884;8.666;2023-03-01T21:06:28;4.20;99.10
3226;DHT22;1625;49.884;8.666;2023-03-01T21:08:56;4.20;99.90
3226;DHT22;1625;49.884;8.666;2023-03-01T21:11:39;4.00;99.90
3226;DHT22;1625;49.884;8.666;2023-03-01T21:25:05;4.10;99.70
3226;DHT22;1625;49.884;8.666;2023-03-01T21:28:28;4.00;99.80
3226;DHT22;1625;49.884;8.666;2023-03-01T21:31:13;3.90;99.80
3226;DHT22;1625;49.884;8.666;2023-03-01T21:33:47;3.80;99.70
3226;DHT22;1625;49.884;8.666;2023-03-01T21:36:15;3.90;99.90
3226;DHT22;1625;49.884;8.666;2023-03-01T21:38:47;3.80;99.90
3226;DHT22;1625;49.884;8.666;2023-03-01T21:52:47;3.70;99.90
3226;DHT22;1625;49.884;8.666;2023-03-01T21:55:54;3.70;99.90
3226;DHT22;1625;49.884;8.666;2023-03-01T21:58:27;3.70;99.90
3226;DHT22;1625;49.884;8.666;2023-03-01T22:11:51;3.60;99.90
3226;DHT22;1625;49.884;8.666;2023-03-01T22:17:15;3.70;99.90
3226;DHT22;1625;49.884;8.666;2023-03-01T22:19:41;3.40;99.90
3226;DHT22;1625;49.884;8.666;2023-03-01T22:22:07;3.60;99.90
3226;DHT22;1625;49.884;8.666;2023-03-01T22:24:33;3.60;99.90
3226;DHT22;1625;49.884;8.666;2023-03-01T22:26:59;3.50;99.90
3226;DHT22;1625;49.884;8.666;2023-03-01T22:29:27;3.60;99.90
3226;DHT22;1625;49.884;8.666;2023-03-01T22:31:54;3.70;99.90
3226;DHT22;1625;49.884;8.666;2023-03-01T22:34:28;3.60;99.90
3226;DHT22;1625;49.884;8.666;2023-03-01T22:37:20;3.50;99.90
3226;DHT22;1625;49.884;8.666;2023-03-01T22:42:12;3.50;99.90
3226;DHT22;1625;49.884;8.666;2023-03-01T22:44:38;3.40;99.90
3226;DHT22;1625;49.884;8.666;2023-03-01T22:49:35;3.50;99.90
3226;DHT22;1625;49.884;8.666;2023-03-01T22:52:01;3.50;99.90
3226;DHT22;1625;49.884;8.666;2023-03-01T22:54:27;3.40;99.90
3226;DHT22;1625;49.884;8.666;2023-03-01T22:56:52;3.50;99.90
3226;DHT22;1625;49.884;8.666;2023-03-01T22:59:20;3.50;99.90
3226;DHT22;1625;49.884;8.666;2023-03-01T23:01:48;3.40;99.90
3226;DHT22;1625;49.884;8.666;2023-03-01T23:04:15;3.40;99.90
3226;DHT22;1625;49.884;8.666;2023-03-01T23:06:41;3.40;99.90
3226;DHT22;1625;49.884;8.666;2023-03-01T23:09:23;3.50;99.90
3226;DHT22;1625;49.884;8.666;2023-03-01T23:11:49;3.40;99.90
3226;DHT22;1625;49.884;8.666;2023-03-01T23:14:15;3.50;99.90
3226;DHT22;1625;49.884;8.666;2023-03-01T23:16:41;3.50;99.90
3226;DHT22;1625;49.884;8.666;2023-03-01T23:19:07;3.40;99.90
3226;DHT22;1625;49.884;8.666;2023-03-01T23:21:34;3.40;99.90
3226;DHT22;1625;49.884;8.666;2023-03-01T23:24:00;3.20;99.90
3226;DHT22;1625;49.884;8.666;2023-03-01T23:26:27;3.30;99.90
3226;DHT22;1625;49.884;8.666;2023-03-01T23:28:55;3.20;99.90
3226;DHT22;1625;49.884;8.666;2023-03-01T23:33:48;3.10;99.90
3226;DHT22;1625;49.884;8.666;2023-03-01T23:36:20;3.20;99.90
3226;DHT22;1625;49.884;8.666;2023-03-01T23:38:50;3.20;99.90
3226;DHT22;1625;49.884;8.666;2023-03-01T23:41:19;3.20;99.90
3226;DHT22;1625;49.884;8.666;2023-03-01T23:43:46;3.20;99.90
3226;DHT22;1625;49.884;8.666;2023-03-01T23:46:14;3.10;99.90
3226;DHT22;1625;49.884;8.666;2023-03-01T23:51:07;3.10;99.90
3226;DHT22;1625;49.884;8.666;2023-03-01T23:53:56;3.10;99.90
3226;DHT22;1625;49.884;8.666;2023-03-01T23:59:31;2.90;99.90
